Time;durP1;ratioP1;P1;durP2;ratioP2;P2;SDS_P1;SDS_P2;PMS_P1;PMS_P2;Temp;Humidity;BMP_temperature;BMP_pressure;BME280_temperature;BME280_humidity;BME280_pressure;Samples;Min_cycle;Max_cycle;Signal;HPM_P1;HPM_P2
2021/04/25 00:01:14;;;;;;;26.35;17.60;;;;;;;8.93;64.82;94653.77;827678;71;33473;-77
2021/04/25 00:16:14;;;;;;;19.73;15.08;;;;;;;8.87;64.52;94652.77;828385;71;32589;-79
2021/04/25 00:31:09;;;;;;;21.05;14.75;;;;;;;8.80;64.34;94635.54;833661;71;30500;-78
2021/04/25 00:46:15;;;;;;;22.25;14.85;;;;;;;8.68;64.76;94653.41;827008;71;33030;-77
2021/04/25 01:01:08;;;;;;;22.75;14.58;;;;;;;8.46;65.06;94642.56;827450;71;29962;-78
2021/04/25 01:16:20;;;;;;;19.15;14.28;;;;;;;8.33;65.75;94646.00;826419;71;33125;-77
2021/04/25 01:31:09;;;;;;;19.62;13.90;;;;;;;8.24;66.00;94644.98;827650;71;31187;-77
2021/04/25 01:46:09;;;;;;;19.32;13.93;;;;;;;8.13;66.26;94636.91;827766;71;30288;-76
2021/04/25 02:01:09;;;;;;;18.85;13.25;;;;;;;8.01;66.48;94629.41;827602;71;31055;-78
2021/04/25 02:16:08;;;;;;;16.20;11.08;;;;;;;7.89;66.79;94620.56;827793;71;29804;-77
2021/04/25 02:31:09;;;;;;;17.55;11.45;;;;;;;7.66;66.78;94613.31;827916;71;29952;-76
2021/04/25 02:46:10;;;;;;;17.87;10.88;;;;;;;7.55;67.26;94596.91;833929;71;30229;-79
2021/04/25 03:01:42;;;;;;;17.48;12.63;;;;;;;7.45;67.47;94591.19;828990;71;30317;-76
2021/04/25 03:16:09;;;;;;;22.98;11.80;;;;;;;7.37;67.83;94596.41;829270;71;30362;-78
2021/04/25 03:31:14;;;;;;;17.77;13.55;;;;;;;7.30;67.96;94610.78;833567;71;33007;-78
2021/04/25 03:46:13;;;;;;;15.72;11.63;;;;;;;8.05;66.29;94607.42;833620;71;31474;-77
2021/04/25 04:01:10;;;;;;;19.27;14.07;;;;;;;10.37;60.93;94609.11;827935;71;30424;-78
2021/04/25 04:16:09;;;;;;;22.85;15.43;;;;;;;12.57;55.25;94618.96;827464;71;30283;-77
2021/04/25 04:31:09;;;;;;;19.15;15.48;;;;;;;14.48;49.85;94625.02;827869;71;29702;-77
2021/04/25 04:46:16;;;;;;;20.05;16.90;;;;;;;16.19;45.59;94628.80;826694;71;32846;-77
2021/04/25 05:01:08;;;;;;;20.05;16.10;;;;;;;16.90;43.18;94637.11;827668;71;28636;-74
2021/04/25 05:16:09;;;;;;;21.62;16.23;;;;;;;17.46;41.55;94644.19;833028;71;29227;-75
2021/04/25 05:31:08;;;;;;;18.67;14.73;;;;;;;18.38;39.61;94649.63;829034;71;28687;-78
2021/04/25 05:46:16;;;;;;;18.02;15.53;;;;;;;18.81;38.24;94644.28;833190;71;32334;-75
2021/04/25 06:01:14;;;;;;;20.30;17.30;;;;;;;18.84;37.91;94652.16;826918;71;31760;-77
2021/04/25 06:16:09;;;;;;;23.10;15.95;;;;;;;17.62;40.35;94647.00;827354;71;29275;-77
2021/04/25 06:31:08;;;;;;;20.55;16.82;;;;;;;18.56;43.29;94636.88;833311;71;28776;-75
2021/04/25 06:46:08;;;;;;;15.23;13.60;;;;;;;19.69;38.21;94626.84;827230;71;28751;-75
2021/04/25 07:01:10;;;;;;;14.35;11.75;;;;;;;19.86;36.08;94598.59;812916;70;28760;-73
2021/04/25 07:16:18;;;;;;;9.23;8.30;;;;;;;19.14;34.67;94586.12;820229;70;31829;-73
2021/04/25 07:31:28;;;;;;;11.55;8.48;;;;;;;18.59;33.66;94586.27;815927;70;32684;-77
2021/04/25 07:46:19;;;;;;;13.30;8.23;;;;;;;18.71;33.36;94574.27;831935;71;31871;-76
2021/04/25 08:01:18;;;;;;;9.63;7.28;;;;;;;17.97;33.16;94559.80;826749;71;31993;-75
2021/04/25 08:16:15;;;;;;;8.00;7.20;;;;;;;19.87;32.24;94551.42;823818;71;31737;-74
2021/04/25 08:31:18;;;;;;;10.65;7.78;;;;;;;19.42;32.65;94548.05;826806;71;31723;-75
2021/04/25 08:46:18;;;;;;;10.65;8.18;;;;;;;20.83;31.75;94526.66;826776;71;31789;-75
2021/04/25 09:01:41;;;;;;;7.00;6.30;;;;;;;21.37;30.19;94526.49;829404;71;29486;-76
2021/04/25 09:16:12;;;;;;;6.83;6.10;;;;;;;21.17;27.46;94505.74;827904;71;30273;-76
2021/04/25 09:31:18;;;;;;;4.97;4.45;;;;;;;21.04;24.56;94488.34;826797;71;32665;-74
2021/04/25 09:46:09;;;;;;;4.50;4.10;;;;;;;20.72;23.90;94471.22;828671;71;30758;-76
2021/04/25 10:01:13;;;;;;;4.62;4.22;;;;;;;20.57;23.76;94438.70;827665;71;29855;-76
2021/04/25 10:16:28;;;;;;;4.40;4.00;;;;;;;19.60;23.55;94418.81;827543;71;32800;-75
2021/04/25 10:31:21;;;;;;;4.20;3.90;;;;;;;19.57;24.15;94406.22;827388;71;32768;-75
2021/04/25 10:46:09;;;;;;;3.85;3.55;;;;;;;19.40;22.34;94387.41;829303;71;29585;-76
2021/04/25 11:01:10;;;;;;;5.20;4.70;;;;;;;20.34;25.05;94378.69;829273;71;29726;-76
2021/04/25 11:16:26;;;;;;;4.30;3.77;;;;;;;19.94;22.63;94371.25;827454;71;29473;-76
2021/04/25 11:31:23;;;;;;;3.90;3.60;;;;;;;20.63;23.99;94353.33;826956;71;32717;-75
2021/04/25 11:46:14;;;;;;;4.42;3.98;;;;;;;20.26;24.30;94335.14;816707;71;32756;-77
2021/04/25 12:01:11;;;;;;;3.58;3.27;;;;;;;21.28;24.14;94308.41;828805;71;29323;-76
2021/04/25 12:16:23;;;;;;;3.95;3.65;;;;;;;21.34;22.63;94288.28;828231;71;32707;-76
2021/04/25 12:31:17;;;;;;;4.50;3.60;;;;;;;21.69;22.12;94273.10;826859;71;33239;-74
2021/04/25 12:46:23;;;;;;;4.17;3.77;;;;;;;21.59;22.17;94260.61;832922;71;31692;-75
2021/04/25 13:01:23;;;;;;;3.20;3.00;;;;;;;21.93;21.90;94238.45;827434;71;31412;-76
2021/04/25 13:16:14;;;;;;;3.77;3.47;;;;;;;21.78;21.78;94234.88;833787;71;29557;-78
2021/04/25 13:31:14;;;;;;;4.08;3.67;;;;;;;21.79;22.31;94210.44;828273;71;33126;-76
2021/04/25 13:46:10;;;;;;;3.75;3.45;;;;;;;21.57;22.95;94204.67;828120;71;30284;-77
2021/04/25 14:01:20;;;;;;;4.42;4.03;;;;;;;21.29;22.72;94199.20;823545;71;32826;-74
2021/04/25 14:16:17;;;;;;;4.58;4.17;;;;;;;21.19;22.97;94198.50;827209;71;32760;-75
2021/04/25 14:31:09;;;;;;;5.03;4.62;;;;;;;20.76;23.13;94145.37;827967;71;29636;-77
2021/04/25 14:46:14;;;;;;;4.58;4.17;;;;;;;21.29;25.28;94185.06;835162;71;32708;-74
2021/04/25 15:01:41;;;;;;;6.12;4.83;;;;;;;20.76;23.72;94180.03;828948;71;29684;-75
2021/04/25 15:16:11;;;;;;;6.40;5.80;;;;;;;20.69;23.87;94183.16;821693;71;31262;-76
2021/04/25 15:31:12;;;;;;;6.85;6.15;;;;;;;20.45;23.39;94161.64;821459;71;32126;-76
2021/04/25 15:46:15;;;;;;;4.12;3.80;;;;;;;20.18;23.14;94157.06;822511;71;32774;-76
2021/04/25 16:01:09;;;;;;;5.75;5.10;;;;;;;19.88;23.23;94159.61;822511;71;30214;-74
2021/04/25 16:16:11;;;;;;;6.95;5.50;;;;;;;18.95;27.84;94156.52;824164;71;31641;-77
2021/04/25 16:31:19;;;;;;;7.95;5.97;;;;;;;18.10;29.71;94173.41;820360;71;33058;-77
2021/04/25 16:46:17;;;;;;;7.37;6.67;;;;;;;17.56;33.33;94184.77;821922;71;33360;-76
2021/04/25 17:01:21;;;;;;;11.55;7.80;;;;;;;17.09;36.53;94196.00;819230;71;33235;-74
2021/04/25 17:16:24;;;;;;;9.55;8.65;;;;;;;16.57;38.32;94216.03;820702;71;33289;-77
2021/04/25 17:31:09;;;;;;;9.70;7.70;;;;;;;16.01;40.24;94232.98;828676;71;30368;-80
2021/04/25 17:46:15;;;;;;;9.63;8.70;;;;;;;15.35;42.24;94248.28;827083;71;32705;-81
2021/04/25 18:01:17;;;;;;;10.98;9.88;;;;;;;14.86;43.55;94287.06;826436;71;33136;-80
2021/04/25 18:16:15;;;;;;;10.20;8.95;;;;;;;14.42;45.03;94301.00;822004;71;32848;-80
2021/04/25 18:31:09;;;;;;;11.43;9.60;;;;;;;13.94;46.56;94325.23;834071;71;29808;-80
2021/04/25 18:46:08;;;;;;;11.53;9.38;;;;;;;13.66;47.90;94363.57;833929;71;29768;-79
2021/04/25 19:01:17;;;;;;;16.07;10.43;;;;;;;13.36;49.76;94378.67;817300;71;32787;-81
2021/04/25 19:16:10;;;;;;;11.68;10.00;;;;;;;13.03;51.11;94390.86;827791;71;30416;-77
2021/04/25 19:31:13;;;;;;;11.30;9.70;;;;;;;12.64;51.51;94379.80;832524;71;29308;-76
2021/04/25 19:46:09;;;;;;;14.80;11.63;;;;;;;12.49;51.87;94393.34;827427;71;30858;-79
2021/04/25 20:01:15;;;;;;;11.08;9.93;;;;;;;12.28;52.67;94381.23;833398;71;33492;-78
2021/04/25 20:16:12;;;;;;;12.70;10.20;;;;;;;12.02;53.87;94381.83;829470;71;30964;-77
2021/04/25 20:31:15;;;;;;;14.45;10.50;;;;;;;11.74;54.71;94384.55;833260;71;33333;-77
2021/04/25 20:46:20;;;;;;;14.23;10.23;;;;;;;11.51;55.72;94389.52;828052;71;32162;-78
2021/04/25 21:01:52;;;;;;;14.65;11.30;;;;;;;11.46;55.94;94390.41;828708;71;31843;-77
2021/04/25 21:16:09;;;;;;;12.93;10.58;;;;;;;11.51;55.50;94395.55;834456;71;28689;-75
2021/04/25 21:31:13;;;;;;;10.58;9.00;;;;;;;11.38;55.55;94414.21;827640;71;31571;-77
2021/04/25 21:46:08;;;;;;;13.55;9.53;;;;;;;11.32;55.63;94421.95;827873;71;28707;-77
2021/04/25 22:01:14;;;;;;;12.90;10.30;;;;;;;11.41;55.80;94419.41;833557;71;32017;-78
2021/04/25 22:16:14;;;;;;;15.08;10.88;;;;;;;;;;826985;71;32580;-77
2021/04/25 22:31:18;;;;;;;15.88;9.30;;;;;;;11.35;56.24;94404.82;827912;71;32329;-76
2021/04/25 22:46:08;;;;;;;11.80;9.30;;;;;;;;;;833844;71;29044;-78
2021/04/25 23:01:11;;;;;;;11.00;8.75;;;;;;;;;;833426;71;31467;-74
2021/04/25 23:16:09;;;;;;;14.25;8.95;;;;;;;10.71;56.54;94383.22;833592;71;29267;-78
2021/04/25 23:31:09;;;;;;;9.28;7.90;;;;;;;10.62;56.20;94387.56;828433;71;28668;-77
2021/04/25 23:46:14;;;;;;;16.82;10.93;;;;;;;;;;826731;71;31818;-78
